Terminal Aerodrome Forecast
Issued by NWS Pocatello, ID

Home | Current Version | Previous Version | Text Only | Print | Product List | Glossary On
Versions: 1 2 3 4 5 6 7 8 9 10 11 12 13 14 15
653
FTUS45 KPIH 302320
TAFBYI
TAF
KBYI 302320Z 0100/0124 27015G25KT P6SM SCT100
     FM010300 27011KT P6SM SCT070 SCT100
     FM011300 29015KT P6SM SCT040=

USA.gov is the U.S. government's official web portal to all federal, state and local government web resources and services.